首页
METAR-TAF:

METAR-TAF

机场 :

比隆機場

Billund, 丹麦

纬度: 55-44N, 经度: 009-10E, 海拔: 75米

当前天气观测

该预报发布于22分钟前的15:50 UTC
风速10节,风向西转西南,在南转西南西之间变化
温度 15°C
湿度 51%
气压 1022 hPa
能见度10公里或以上

METAR: EKBI 081550Z AUTO 24010KT 210V270 9999 FEW045/// FEW057/// 15/05 Q1022

时间: 18:12 (16:12 UTC)

预报

该预报发布于5小时和2分钟前的11:10 UTC
预报有效从08日的 12点(UTC)到 09日的 12点(UTC)
风速8节,风向
能见度10公里或以上
1500米以下无云,无积雨云
成为
从 08日的 12点(UTC)到 08日的 14点(UTC)
风速10节,风向西转西南
成为
从 08日的 23点(UTC)到 09日的 01点(UTC)
风速11节,风向西北
短暂存在
从 09日的 01点(UTC)到 09日的 05点(UTC)
多云层高于600英尺

TAF: EKBI 081110Z 0812/0912 18008KT CAVOK BECMG 0812/0814 24010KT BECMG 0823/0901 31011KT TEMPO 0901/0905 BKN006

超过4000个机场的气象观测和天气预报(METAR&TAF报告)。

可查询的气象台以黄色和红色小点在地图上表示。

将鼠标移到小点上方,可查看气象台名称。

然后点击查看天气观测和预报。

如需切换地图:点击带黑十字的绿色按钮放大地图;点击带横线的绿色按钮缩小地图;或者点击绿色箭头查看邻近地区的地图。


METAR-TAF: